Time;durP1;ratioP1;P1;durP2;ratioP2;P2;SDS_P1;SDS_P2;PMS_P1;PMS_P2;Temp;Humidity;BMP_temperature;BMP_pressure;BME280_temperature;BME280_humidity;BME280_pressure;Samples;Min_cycle;Max_cycle;Signal;HPM_P1;HPM_P2
2021/01/06 00:00:26;;;;;;;82.97;38.55;;;;;;;-1.12;94.56;95334.97;1040330;28;20030;-44
2021/01/06 00:00:57;;;;;;;79.80;39.17;;;;;;;-0.71;95.51;95335.47;1036884;28;20028;-42
2021/01/06 00:01:28;;;;;;;87.60;40.17;;;;;;;-0.91;92.31;95337.34;1032681;28;20053;-43
2021/01/06 00:01:58;;;;;;;87.15;39.70;;;;;;;-1.00;92.22;95340.75;1033033;28;20561;-43
2021/01/06 00:02:29;;;;;;;84.13;38.17;;;;;;;-1.01;93.29;95344.31;1041280;28;20051;-43
2021/01/06 00:03:00;;;;;;;76.67;38.17;;;;;;;-0.86;93.88;95350.63;1044825;28;20517;-43
2021/01/06 00:03:33;;;;;;;78.43;38.53;;;;;;;-0.84;93.60;95345.31;1045347;28;20457;-42
2021/01/06 00:04:04;;;;;;;80.15;39.78;;;;;;;-0.80;93.30;95342.31;1045266;28;20501;-43
2021/01/06 00:04:35;;;;;;;79.93;38.40;;;;;;;-0.95;92.22;95346.31;1045416;28;20052;-43
2021/01/06 00:05:09;;;;;;;79.07;37.60;;;;;;;-0.70;93.57;95338.84;1045265;28;20437;-43
2021/01/06 00:05:40;;;;;;;75.57;37.63;;;;;;;-0.59;93.17;95343.84;1045214;28;20032;-42
2021/01/06 00:06:12;;;;;;;74.67;38.60;;;;;;;-0.69;92.73;95345.66;1045279;28;20031;-42
2021/01/06 00:06:43;;;;;;;80.35;38.83;;;;;;;-0.59;92.45;95338.66;1045364;28;20017;-44
2021/01/06 00:07:13;;;;;;;75.57;37.97;;;;;;;-0.65;92.11;95339.22;1045232;28;20036;-43
2021/01/06 00:07:45;;;;;;;91.03;41.73;;;;;;;-0.79;91.11;95336.19;1045497;28;20109;-43
2021/01/06 00:08:15;;;;;;;80.63;39.78;;;;;;;-0.66;92.79;95340.19;1045224;28;20017;-43
2021/01/06 00:08:46;;;;;;;76.43;38.37;;;;;;;-0.59;92.72;95339.47;1044776;28;20087;-42
2021/01/06 00:09:16;;;;;;;76.93;38.37;;;;;;;-0.57;92.00;95334.16;1040874;28;20029;-43
2021/01/06 00:09:47;;;;;;;72.13;37.97;;;;;;;-0.54;92.55;95336.44;1040912;28;20596;-44
2021/01/06 00:10:21;;;;;;;79.73;38.73;;;;;;;-0.74;90.49;95338.34;1040925;28;20025;-45
2021/01/06 00:10:53;;;;;;;79.65;36.58;;;;;;;-0.67;91.29;95338.56;1044952;28;20044;-43
2021/01/06 00:11:50;;;;;;;84.68;38.83;;;;;;;-0.70;90.15;95337.06;1045064;28;20025;-43
2021/01/06 00:12:20;;;;;;;79.50;38.03;;;;;;;-0.99;91.02;95338.03;1044740;28;20098;-43
2021/01/06 00:12:51;;;;;;;79.40;38.67;;;;;;;-0.99;91.68;95338.03;1045054;28;20115;-43
2021/01/06 00:13:21;;;;;;;82.40;38.23;;;;;;;-0.98;91.39;95337.06;1045121;28;20017;-43
2021/01/06 00:13:52;;;;;;;88.73;40.83;;;;;;;-1.08;91.50;95338.88;1045192;28;20052;-44
2021/01/06 00:14:22;;;;;;;86.30;39.70;;;;;;;-1.09;92.04;95343.25;1045069;28;20040;-42
2021/01/06 00:14:53;;;;;;;86.67;41.07;;;;;;;-1.15;92.80;95338.66;1045245;28;20481;-44
2021/01/06 00:15:29;;;;;;;88.97;40.13;;;;;;;-0.97;93.84;95343.88;1045250;28;20025;-44
2021/01/06 00:15:59;;;;;;;82.05;37.85;;;;;;;-0.89;93.56;95343.16;1045254;28;20017;-43
2021/01/06 00:16:30;;;;;;;76.83;37.77;;;;;;;-0.89;92.35;95345.75;1044992;28;20036;-43
2021/01/06 00:17:01;;;;;;;76.17;37.13;;;;;;;-1.05;92.90;95348.13;1040809;28;20465;-42
2021/01/06 00:17:31;;;;;;;84.97;40.27;;;;;;;-1.16;93.21;95354.28;1040896;28;20044;-43
2021/01/06 00:18:02;;;;;;;84.83;39.27;;;;;;;-1.23;93.11;95342.88;1041006;28;20524;-43
2021/01/06 00:18:33;;;;;;;84.40;38.28;;;;;;;-1.19;92.74;95347.63;1044686;28;20021;-43
2021/01/06 00:19:03;;;;;;;79.97;39.80;;;;;;;-1.27;92.86;95348.34;1044713;28;20048;-42
2021/01/06 00:19:34;;;;;;;88.57;38.90;;;;;;;-1.21;93.36;95341.78;1044922;28;20108;-43
2021/01/06 00:20:07;;;;;;;83.03;40.90;;;;;;;-1.24;93.19;95342.09;1044839;28;20024;-42
2021/01/06 00:20:38;;;;;;;93.60;41.33;;;;;;;-1.26;93.26;95349.13;1044853;28;20507;-43
2021/01/06 00:21:10;;;;;;;84.20;39.13;;;;;;;-1.24;93.45;95342.09;1045400;28;20029;-43
2021/01/06 00:21:41;;;;;;;88.00;41.28;;;;;;;-1.16;94.65;95347.34;1044986;28;20052;-43
2021/01/06 00:22:21;;;;;;;85.33;39.37;;;;;;;-1.20;93.51;95338.28;1045042;28;20025;-44
2021/01/06 00:22:51;;;;;;;;;;;;;;;-1.15;93.79;95338.66;1045738;28;20457;-43
2021/01/06 00:23:22;;;;;;;85.17;37.10;;;;;;;-1.20;93.83;95343.44;1045219;28;19915;-43
2021/01/06 00:23:53;;;;;;;81.13;37.80;;;;;;;-1.14;94.51;95342.88;1045390;28;20087;-43
2021/01/06 00:24:23;;;;;;;84.73;39.20;;;;;;;-1.26;93.31;95344.81;1045275;28;20028;-42
2021/01/06 00:24:54;;;;;;;88.60;39.93;;;;;;;-1.22;94.06;95350.50;1045175;28;20021;-43
2021/01/06 00:25:27;;;;;;;85.07;39.50;;;;;;;-1.14;94.26;95342.03;1045304;28;20132;-43
2021/01/06 00:25:57;;;;;;;76.97;38.05;;;;;;;-1.09;92.62;95343.25;1045304;28;20028;-43
2021/01/06 00:26:34;;;;;;;86.47;40.00;;;;;;;-1.20;92.55;95348.59;1045218;28;20028;-42
2021/01/06 00:27:05;;;;;;;86.22;40.97;;;;;;;-1.21;93.68;95341.00;1045198;28;20027;-42
2021/01/06 00:27:36;;;;;;;94.90;44.00;;;;;;;-1.28;94.18;95343.31;1045423;28;20029;-43
2021/01/06 00:28:06;;;;;;;87.80;41.80;;;;;;;-1.19;93.25;95339.88;1045488;28;20077;-42
2021/01/06 00:28:37;;;;;;;88.33;40.30;;;;;;;-1.28;93.18;95344.13;1045440;28;20025;-43
2021/01/06 00:29:09;;;;;;;93.17;42.43;;;;;;;-1.34;93.45;95339.50;1045055;28;20021;-43
2021/01/06 00:29:42;;;;;;;98.22;41.15;;;;;;;-1.19;94.33;95339.06;1040829;28;20112;-44
2021/01/06 00:30:26;;;;;;;80.60;40.70;;;;;;;-1.15;94.54;95343.81;1040768;28;20029;-44
2021/01/06 00:30:58;;;;;;;81.68;39.22;;;;;;;-1.03;94.76;95338.44;1040671;28;20041;-43
2021/01/06 00:31:28;;;;;;;75.88;38.15;;;;;;;-1.04;94.18;95342.00;1043490;28;20045;-42
2021/01/06 00:31:59;;;;;;;76.13;38.40;;;;;;;-0.93;93.92;95339.22;1045138;28;20021;-43
2021/01/06 00:32:29;;;;;;;85.40;39.60;;;;;;;-1.11;93.28;95340.00;1044723;28;20025;-42
2021/01/06 00:33:00;;;;;;;89.30;40.07;;;;;;;-1.08;94.27;95336.28;1044999;28;20437;-42
2021/01/06 00:33:34;;;;;;;80.10;38.55;;;;;;;-0.90;94.76;95342.34;1036418;28;20402;-42
2021/01/06 00:34:05;;;;;;;76.97;37.90;;;;;;;-0.96;93.63;95339.53;1037413;28;20116;-42
2021/01/06 00:34:35;;;;;;;75.23;36.77;;;;;;;-0.93;93.50;95339.22;1041015;28;20074;-44
2021/01/06 00:35:06;;;;;;;84.53;39.10;;;;;;;-1.00;92.50;95335.59;1041203;28;20284;-43
2021/01/06 00:35:37;;;;;;;79.32;38.38;;;;;;;-1.01;92.21;95336.56;1044974;28;20009;-42
2021/01/06 00:36:18;;;;;;;90.43;41.40;;;;;;;-1.03;92.23;95333.28;1045091;28;20098;-44
2021/01/06 00:36:49;;;;;;;75.72;38.33;;;;;;;-1.11;92.31;95329.66;1045200;28;20012;-43
2021/01/06 00:37:19;;;;;;;84.20;39.73;;;;;;;-1.13;93.74;95328.97;1045016;28;20523;-43
2021/01/06 00:37:50;;;;;;;83.53;37.67;;;;;;;-1.12;93.50;95338.38;1044876;28;20421;-44
2021/01/06 00:38:20;;;;;;;91.13;41.67;;;;;;;-1.20;93.06;95337.44;1044819;28;20021;-42
2021/01/06 00:38:51;;;;;;;87.30;40.30;;;;;;;-1.25;93.12;95340.44;1044974;28;20484;-42
2021/01/06 00:39:21;;;;;;;83.77;39.90;;;;;;;-1.31;93.43;95338.44;1040561;28;20033;-43
2021/01/06 00:39:51;;;;;;;85.00;41.40;;;;;;;-1.36;93.43;95333.69;1040695;28;20062;-43
2021/01/06 00:40:22;;;;;;;90.33;42.73;;;;;;;-1.36;93.70;95338.03;1040651;28;20028;-43
2021/01/06 00:40:53;;;;;;;96.20;42.90;;;;;;;-1.41;93.90;95342.81;1040786;28;20025;-42
2021/01/06 00:41:30;;;;;;;89.60;42.07;;;;;;;-1.44;93.78;95343.91;1044861;28;20378;-42
2021/01/06 00:42:00;;;;;;;95.78;41.83;;;;;;;-1.52;94.43;95338.63;1045145;28;20025;-43
2021/01/06 00:42:31;;;;;;;93.97;43.27;;;;;;;-1.49;94.67;95339.16;1045084;28;20481;-43
2021/01/06 00:43:05;;;;;;;94.43;44.07;;;;;;;-1.49;94.56;95344.34;1044458;28;20024;-42
2021/01/06 00:43:36;;;;;;;91.38;45.15;;;;;;;-1.49;94.72;95336.59;1044793;28;20512;-44
2021/01/06 00:44:06;;;;;;;86.07;43.93;;;;;;;-1.40;94.57;95347.81;1040672;28;20099;-44
2021/01/06 00:44:37;;;;;;;91.27;44.40;;;;;;;-1.46;94.55;95340.63;1041393;28;20437;-43
2021/01/06 00:45:09;;;;;;;101.00;43.30;;;;;;;-1.53;95.40;95342.97;1044676;28;20028;-42
2021/01/06 00:45:40;;;;;;;89.18;40.25;;;;;;;-1.50;95.28;95339.31;1044537;28;20486;-44
2021/01/06 00:46:10;;;;;;;106.67;45.83;;;;;;;-1.56;95.75;95342.41;1045199;28;20032;-43
2021/01/06 00:46:41;;;;;;;94.70;44.90;;;;;;;-1.58;95.70;95344.34;1044703;28;20025;-42
2021/01/06 00:47:11;;;;;;;90.77;42.67;;;;;;;-1.57;95.50;95341.63;1045025;28;20408;-42
2021/01/06 00:47:42;;;;;;;99.33;48.30;;;;;;;-1.55;95.83;95339.72;1044915;28;20114;-42
2021/01/06 00:48:13;;;;;;;88.03;43.70;;;;;;;-1.55;95.79;95338.91;1044950;28;20160;-43
2021/01/06 00:48:44;;;;;;;99.30;45.97;;;;;;;-1.54;95.83;95335.38;1045018;28;20029;-42
2021/01/06 00:49:14;;;;;;;100.23;44.83;;;;;;;-1.54;95.63;95338.75;1045017;28;20028;-42
2021/01/06 00:49:45;;;;;;;94.40;45.00;;;;;;;-1.57;95.81;95336.44;1045525;28;20028;-42
2021/01/06 00:50:16;;;;;;;98.07;44.13;;;;;;;-1.54;96.01;95343.13;1045436;28;20118;-43
2021/01/06 00:50:46;;;;;;;90.27;41.83;;;;;;;-1.57;96.09;95336.44;1040908;28;20076;-44
2021/01/06 00:51:17;;;;;;;89.60;40.37;;;;;;;-1.65;96.34;95338.94;1040832;28;20484;-43
2021/01/06 00:51:47;;;;;;;86.07;40.33;;;;;;;-1.61;96.61;95337.69;1040845;28;20045;-42
2021/01/06 00:52:18;;;;;;;89.67;41.13;;;;;;;-1.66;96.43;95338.09;1041161;28;20029;-42
2021/01/06 00:52:48;;;;;;;86.17;40.10;;;;;;;-1.68;96.57;95336.63;1044761;28;20020;-44
2021/01/06 00:53:24;;;;;;;91.87;41.97;;;;;;;-1.72;96.82;95337.84;1040834;28;20029;-43
2021/01/06 00:53:54;;;;;;;93.45;40.63;;;;;;;-1.75;97.10;95340.69;1040769;28;20030;-43
2021/01/06 00:54:25;;;;;;;91.77;40.03;;;;;;;-1.71;97.20;95336.91;1041486;28;20445;-43
2021/01/06 00:54:55;;;;;;;94.43;41.23;;;;;;;-1.72;97.59;95335.25;1045184;28;20031;-43
2021/01/06 00:55:26;;;;;;;89.87;40.67;;;;;;;-1.71;97.45;95340.28;1045243;28;20062;-43
2021/01/06 00:55:56;;;;;;;89.43;39.70;;;;;;;-1.65;97.04;95336.34;1045134;28;20021;-43
2021/01/06 00:56:30;;;;;;;97.40;41.93;;;;;;;-1.70;96.91;95335.94;1045197;28;20079;-43
2021/01/06 00:57:01;;;;;;;95.45;42.40;;;;;;;-1.66;96.85;95337.28;1045116;28;20071;-42
2021/01/06 00:57:31;;;;;;;96.10;42.57;;;;;;;-1.74;97.22;95339.75;1044983;28;20083;-42
2021/01/06 00:58:02;;;;;;;86.90;39.77;;;;;;;-1.69;96.94;95342.72;1045084;28;20045;-42
2021/01/06 00:58:33;;;;;;;94.20;41.17;;;;;;;-1.65;97.08;95339.72;1044799;28;20041;-42
2021/01/06 00:59:03;;;;;;;107.80;41.63;;;;;;;-1.74;97.03;95334.59;1044744;28;20548;-44
2021/01/06 00:59:33;;;;;;;80.97;39.00;;;;;;;-1.64;97.21;95338.78;1044849;28;20037;-42
2021/01/06 01:00:06;;;;;;;91.63;41.07;;;;;;;-1.57;96.31;95338.22;1044888;28;20454;-43
2021/01/06 01:00:37;;;;;;;94.35;42.13;;;;;;;-1.66;96.57;95340.69;1045132;28;20473;-42
2021/01/06 01:01:07;;;;;;;105.03;44.00;;;;;;;-1.72;96.79;95340.44;1044607;28;20103;-43
2021/01/06 01:01:38;;;;;;;92.37;42.80;;;;;;;-1.74;96.88;95339.75;1044672;28;20021;-43
2021/01/06 01:02:08;;;;;;;110.10;44.00;;;;;;;-1.73;97.17;95338.78;1044875;28;20024;-43
2021/01/06 01:02:39;;;;;;;92.20;40.83;;;;;;;-1.65;97.20;95344.09;1044813;28;20028;-43
2021/01/06 01:03:09;;;;;;;93.67;42.77;;;;;;;-1.65;96.92;95346.69;1044750;28;20376;-42
2021/01/06 01:03:40;;;;;;;90.37;42.10;;;;;;;-1.62;96.94;95342.03;1044744;28;20457;-43
2021/01/06 01:04:10;;;;;;;92.50;41.33;;;;;;;-1.62;96.80;95343.81;1044907;28;20455;-43
2021/01/06 01:04:41;;;;;;;88.30;42.50;;;;;;;-1.61;96.65;95348.00;1044922;28;20017;-41
2021/01/06 01:05:12;;;;;;;91.37;43.00;;;;;;;-1.61;96.46;95341.09;1044717;28;20048;-42
2021/01/06 01:05:44;;;;;;;90.75;41.95;;;;;;;-1.60;96.65;95344.47;1044831;28;20036;-42
2021/01/06 01:06:29;;;;;;;101.68;43.58;;;;;;;-1.56;96.49;95342.41;1045241;28;20423;-43
2021/01/06 01:06:59;;;;;;;91.45;40.70;;;;;;;-1.58;96.69;95336.59;1044971;28;20037;-43
2021/01/06 01:07:30;;;;;;;95.17;42.33;;;;;;;-1.56;96.78;95347.59;1045149;28;20418;-43
2021/01/06 01:08:01;;;;;;;90.47;42.30;;;;;;;-1.52;96.77;95346.34;1045138;28;20044;-42
2021/01/06 01:08:31;;;;;;;88.87;39.53;;;;;;;-1.58;96.48;95344.34;1044949;28;20021;-43
2021/01/06 01:09:03;;;;;;;87.53;40.07;;;;;;;-1.72;96.70;95340.44;1045041;28;20024;-43
2021/01/06 01:09:33;;;;;;;93.88;42.20;;;;;;;-1.76;97.23;95346.81;1045122;28;20103;-43
2021/01/06 01:10:04;;;;;;;87.70;39.97;;;;;;;-1.72;97.49;95343.81;1044939;28;20024;-42
2021/01/06 01:10:46;;;;;;;99.53;41.92;;;;;;;-1.75;97.65;95343.28;1045020;28;20052;-44
2021/01/06 01:11:16;;;;;;;97.43;41.58;;;;;;;-1.69;97.75;95343.53;1045123;28;20056;-44
2021/01/06 01:11:47;;;;;;;94.73;41.10;;;;;;;-1.76;97.66;95344.22;1045105;28;20020;-42
2021/01/06 01:12:17;;;;;;;98.23;42.53;;;;;;;-1.86;98.01;95339.91;1045062;28;20046;-43
2021/01/06 01:12:50;;;;;;;99.53;42.47;;;;;;;-1.92;98.25;95343.03;1044894;28;20567;-44
2021/01/06 01:13:24;;;;;;;89.78;40.25;;;;;;;-1.88;98.59;95341.81;1044751;28;20047;-42
2021/01/06 01:13:55;;;;;;;99.55;40.55;;;;;;;-1.75;98.00;95348.44;1040670;28;20030;-42
2021/01/06 01:14:28;;;;;;;94.00;41.77;;;;;;;-1.76;97.86;95339.06;1040225;28;20029;-43
2021/01/06 01:14:59;;;;;;;98.47;42.53;;;;;;;-1.87;98.00;95340.84;1041386;28;20009;-43
2021/01/06 01:15:31;;;;;;;99.33;40.63;;;;;;;-1.88;98.27;95339.22;1044756;28;20153;-43
2021/01/06 01:16:02;;;;;;;98.38;44.70;;;;;;;-1.84;98.58;95342.34;1044619;28;20020;-43
2021/01/06 01:16:32;;;;;;;97.50;42.37;;;;;;;-1.84;98.50;95340.59;1044581;28;20036;-43
2021/01/06 01:17:03;;;;;;;105.33;43.87;;;;;;;-1.80;98.40;95339.34;1044784;28;20396;-42
2021/01/06 01:17:33;;;;;;;95.28;42.53;;;;;;;-1.72;98.35;95335.25;1044682;28;20024;-43
2021/01/06 01:18:05;;;;;;;103.27;43.27;;;;;;;-1.72;97.92;95335.25;1045025;28;20533;-42
2021/01/06 01:18:35;;;;;;;97.50;43.10;;;;;;;-1.85;98.08;95333.00;1045082;28;20028;-43
2021/01/06 01:19:06;;;;;;;100.30;42.53;;;;;;;-1.93;99.05;95332.84;1045023;28;20036;-42
2021/01/06 01:19:36;;;;;;;90.00;42.20;;;;;;;-1.87;99.04;95335.69;1045014;28;20024;-42
2021/01/06 01:20:07;;;;;;;90.73;40.60;;;;;;;-1.79;98.47;95332.44;1045098;28;20020;-44
2021/01/06 01:20:48;;;;;;;90.88;42.25;;;;;;;-1.84;98.53;95332.84;1044940;28;20025;-43
2021/01/06 01:21:18;;;;;;;;;;;;;;;-1.76;98.59;95328.75;1045595;28;20031;-43
2021/01/06 01:21:49;;;;;;;95.90;40.47;;;;;;;-1.71;98.44;95334.31;1045117;28;19908;-42
2021/01/06 01:22:19;;;;;;;85.07;39.77;;;;;;;-1.69;98.37;95338.38;1044932;28;20120;-43
2021/01/06 01:22:50;;;;;;;88.27;40.40;;;;;;;-1.68;98.35;95331.47;1044865;28;20017;-42
2021/01/06 01:23:21;;;;;;;87.73;40.33;;;;;;;-1.65;97.75;95339.72;1045041;28;20071;-42
2021/01/06 01:23:52;;;;;;;91.68;41.33;;;;;;;-1.68;98.11;95336.63;1044993;28;20439;-44
2021/01/06 01:24:22;;;;;;;94.33;41.47;;;;;;;-1.72;98.19;95338.66;1044923;28;20021;-43
2021/01/06 01:24:53;;;;;;;95.03;41.27;;;;;;;-1.72;98.47;95330.91;1045022;28;20035;-44
2021/01/06 01:25:26;;;;;;;96.80;41.07;;;;;;;-1.74;98.34;95334.59;1044910;28;20017;-43
2021/01/06 01:25:57;;;;;;;98.53;42.13;;;;;;;-1.80;98.50;95331.59;1045018;28;20013;-42
2021/01/06 01:26:27;;;;;;;86.33;39.27;;;;;;;-1.73;98.31;95336.22;1045084;28;20495;-42
2021/01/06 01:26:58;;;;;;;90.47;39.83;;;;;;;-1.68;98.71;95334.03;1044988;28;20536;-43
2021/01/06 01:27:28;;;;;;;84.50;41.87;;;;;;;-1.67;98.34;95336.50;1044525;28;20041;-42
2021/01/06 01:27:59;;;;;;;91.63;39.87;;;;;;;-1.67;98.22;95339.06;1044759;28;20045;-45
2021/01/06 01:28:29;;;;;;;92.67;41.83;;;;;;;-1.67;98.25;95331.31;1044784;28;20063;-42
2021/01/06 01:29:00;;;;;;;103.50;42.17;;;;;;;-1.71;98.24;95329.97;1044485;28;20531;-42
2021/01/06 01:29:30;;;;;;;94.77;42.30;;;;;;;-1.76;98.39;95331.31;1044956;28;20044;-42
2021/01/06 01:30:01;;;;;;;95.20;41.00;;;;;;;-1.84;98.89;95330.28;1044436;28;20413;-43
2021/01/06 01:30:31;;;;;;;101.37;42.10;;;;;;;-1.86;98.76;95332.16;1044657;28;20023;-42
2021/01/06 01:31:02;;;;;;;95.33;42.17;;;;;;;-1.88;99.07;95331.50;1044772;28;20013;-42
2021/01/06 01:31:33;;;;;;;89.70;41.17;;;;;;;-1.84;99.03;95324.28;1040640;28;20374;-42
2021/01/06 01:32:04;;;;;;;90.05;40.65;;;;;;;-1.83;99.10;95325.91;1044765;28;20041;-41
2021/01/06 01:32:35;;;;;;;93.03;40.88;;;;;;;-1.82;99.16;95328.34;1044573;28;20023;-41
2021/01/06 01:33:05;;;;;;;90.90;42.00;;;;;;;-1.85;99.31;95328.63;1044691;28;20159;-42
2021/01/06 01:33:36;;;;;;;87.83;39.97;;;;;;;-1.87;99.32;95329.72;1045000;28;20100;-45
2021/01/06 01:34:06;;;;;;;86.50;42.17;;;;;;;-1.86;99.16;95329.56;1045165;28;20052;-41
2021/01/06 01:34:37;;;;;;;98.80;43.50;;;;;;;-1.83;99.49;95329.28;1044886;28;20060;-43
2021/01/06 01:35:08;;;;;;;95.53;42.53;;;;;;;-1.79;99.33;95329.84;1044862;28;20032;-43
2021/01/06 01:35:38;;;;;;;84.78;39.97;;;;;;;-1.74;99.33;95327.66;1044971;28;20024;-43
2021/01/06 01:36:09;;;;;;;97.47;42.30;;;;;;;-1.75;99.44;95332.97;1044991;28;20021;-43
2021/01/06 01:36:45;;;;;;;87.47;40.57;;;;;;;-1.80;99.28;95326.44;1045021;28;20040;-43
2021/01/06 01:37:16;;;;;;;95.25;42.35;;;;;;;-1.74;99.24;95324.28;1044975;28;20040;-44
2021/01/06 01:37:46;;;;;;;85.10;39.37;;;;;;;-1.68;98.99;95324.53;1045199;28;20021;-43
2021/01/06 01:38:26;;;;;;;94.50;40.73;;;;;;;-1.69;98.69;95329.81;1045002;28;20382;-43
2021/01/06 01:38:57;;;;;;;87.95;41.10;;;;;;;-1.66;98.67;95319.22;1044914;28;20062;-42
2021/01/06 01:39:27;;;;;;;87.60;39.03;;;;;;;-1.58;98.45;95328.84;1044864;28;20102;-42
2021/01/06 01:39:58;;;;;;;92.60;40.77;;;;;;;-1.55;98.24;95329.41;1044811;28;20404;-42
2021/01/06 01:40:34;;;;;;;98.13;40.87;;;;;;;-1.63;97.97;95324.09;1044724;28;20028;-45
2021/01/06 01:41:10;;;;;;;108.85;41.53;;;;;;;-1.68;98.08;95326.31;1040493;28;20010;-43
2021/01/06 01:41:40;;;;;;;98.88;40.80;;;;;;;-1.71;98.65;95324.00;1040640;28;20028;-42
2021/01/06 01:42:11;;;;;;;90.73;41.00;;;;;;;-1.68;98.65;95329.69;1042294;28;20560;-42
2021/01/06 01:42:42;;;;;;;94.43;41.57;;;;;;;-1.64;98.55;95330.22;1044798;28;20477;-42
2021/01/06 01:43:17;;;;;;;91.77;39.80;;;;;;;-1.68;98.35;95326.31;1044969;28;20040;-44
2021/01/06 01:43:48;;;;;;;88.28;39.25;;;;;;;-1.64;98.40;95331.03;1040566;28;20382;-43
2021/01/06 01:44:18;;;;;;;89.17;39.83;;;;;;;-1.61;98.23;95328.19;1040505;28;20036;-43
2021/01/06 01:45:00;;;;;;;97.27;42.07;;;;;;;-1.59;98.01;95333.22;1040472;28;20013;-44
2021/01/06 01:46:07;;;;;;;96.35;40.50;;;;;;;-1.59;98.32;95329.78;1042337;28;20014;-43
2021/01/06 01:46:49;;;;;;;86.55;38.30;;;;;;;-1.59;98.07;95328.03;1044755;28;20416;-43
2021/01/06 01:47:20;;;;;;;92.43;39.10;;;;;;;-1.65;98.47;95337.16;1040389;28;20451;-50
2021/01/06 01:47:59;;;;;;;88.80;38.97;;;;;;;-1.67;98.54;95333.91;1040509;28;20068;-42
2021/01/06 01:48:34;;;;;;;94.60;39.47;;;;;;;-1.65;98.40;95328.59;1036647;28;20022;-43
2021/01/06 01:49:05;;;;;;;92.57;40.03;;;;;;;-1.73;98.74;95333.63;1038459;28;20126;-43
2021/01/06 01:49:39;;;;;;;96.73;41.40;;;;;;;-1.65;99.00;95334.56;1040718;28;20025;-43
2021/01/06 01:50:10;;;;;;;96.57;41.13;;;;;;;-1.64;98.46;95330.22;1033600;28;20495;-43
2021/01/06 01:50:40;;;;;;;96.13;41.90;;;;;;;-1.66;98.95;95332.13;1036492;28;20053;-42
2021/01/06 01:51:35;;;;;;;90.90;41.27;;;;;;;-1.58;98.76;95328.84;1029175;28;20031;-42
2021/01/06 01:52:11;;;;;;;91.82;39.88;;;;;;;-1.62;98.76;95336.06;1039139;28;20022;-45
2021/01/06 01:52:48;;;;;;;101.63;41.67;;;;;;;-1.73;98.61;95334.47;1032314;28;20033;-43
2021/01/06 01:53:21;;;;;;;96.13;41.28;;;;;;;-1.75;99.00;95332.97;1032392;28;20022;-43
2021/01/06 01:54:01;;;;;;;97.68;41.13;;;;;;;-1.69;99.12;95332.41;1032258;28;20029;-46
2021/01/06 01:54:31;;;;;;;91.65;39.17;;;;;;;-1.63;98.87;95331.84;1037265;28;20027;-43
2021/01/06 01:55:03;;;;;;;92.13;39.97;;;;;;;-1.65;99.03;95332.00;1038316;28;20034;-43
2021/01/06 01:55:37;;;;;;;88.18;40.90;;;;;;;-1.59;98.39;95338.38;1032471;28;20506;-43
2021/01/06 01:56:08;;;;;;;94.05;40.42;;;;;;;-1.58;98.72;95334.81;1033628;28;20026;-42
2021/01/06 01:56:45;;;;;;;86.05;41.13;;;;;;;-1.53;98.78;95335.22;1037134;28;20037;-41
2021/01/06 01:57:18;;;;;;;93.20;40.67;;;;;;;-1.56;98.20;95335.50;1042264;28;20049;-43
2021/01/06 01:57:57;;;;;;;88.63;39.35;;;;;;;-1.48;98.04;95342.56;1040528;28;20104;-42
2021/01/06 01:58:27;;;;;;;88.88;39.28;;;;;;;-1.43;97.43;95327.44;1032290;28;20066;-43
2021/01/06 01:59:02;;;;;;;92.13;43.00;;;;;;;-1.59;97.97;95332.38;1032247;28;20018;-42
2021/01/06 01:59:38;;;;;;;92.38;41.35;;;;;;;-1.61;98.39;95333.34;1032452;28;20027;-43
2021/01/06 02:00:18;;;;;;;95.40;41.65;;;;;;;-1.65;98.97;95333.75;1036512;28;20022;-43
2021/01/06 02:00:48;;;;;;;;;;;;;;;-1.63;98.70;95332.66;1041103;28;20460;-43
2021/01/06 02:01:19;;;;;;;86.77;38.30;;;;;;;-1.64;98.94;95328.47;1042899;28;19905;-43
2021/01/06 02:01:50;;;;;;;92.37;39.50;;;;;;;-1.63;99.15;95324.91;1040451;28;20053;-43
2021/01/06 02:02:34;;;;;;;97.57;41.13;;;;;;;-1.70;99.07;95331.59;1032500;28;20014;-44
2021/01/06 02:03:20;;;;;;;99.82;41.53;;;;;;;-1.75;99.53;95328.59;1032169;28;20054;-44
2021/01/06 02:03:55;;;;;;;93.10;38.88;;;;;;;-1.76;99.74;95324.41;1032506;28;20057;-43
2021/01/06 02:04:47;;;;;;;96.93;41.38;;;;;;;-1.77;100.00;95327.94;1036275;28;20029;-46
2021/01/06 02:05:20;;;;;;;89.80;37.85;;;;;;;-1.64;99.75;95330.22;1040372;28;20111;-44
2021/01/06 02:05:56;;;;;;;96.38;41.67;;;;;;;-1.61;99.56;95324.78;1032452;28;20500;-43
2021/01/06 02:06:33;;;;;;;95.50;40.72;;;;;;;-1.64;99.42;95325.88;1032459;28;20538;-41
2021/01/06 02:07:18;;;;;;;95.72;41.60;;;;;;;-1.55;99.44;95332.00;1032503;28;20050;-41
2021/01/06 02:08:14;;;;;;;89.40;40.15;;;;;;;-1.52;98.85;95331.72;1040091;28;20030;-42
2021/01/06 02:08:56;;;;;;;86.68;38.97;;;;;;;-1.50;98.89;95334.16;1044943;28;20036;-42
2021/01/06 02:09:30;;;;;;;87.05;39.38;;;;;;;-1.51;98.87;95328.16;1040477;28;20029;-47
2021/01/06 02:10:04;;;;;;;91.72;39.88;;;;;;;-1.49;98.83;95326.25;1032373;28;20471;-46
2021/01/06 02:10:36;;;;;;;100.72;40.75;;;;;;;-1.53;98.82;95319.75;1024135;28;20031;-43
2021/01/06 02:11:08;;;;;;;103.68;42.67;;;;;;;-1.50;98.74;95322.03;1027486;28;20019;-42
2021/01/06 02:11:42;;;;;;;91.30;40.05;;;;;;;-1.51;98.73;95325.56;1030779;28;20026;-42
2021/01/06 02:12:18;;;;;;;99.00;42.10;;;;;;;-1.61;98.85;95324.78;1038248;28;20060;-43
2021/01/06 02:12:50;;;;;;;105.20;44.92;;;;;;;-1.72;99.71;95327.53;1032807;28;20097;-43
2021/01/06 02:13:35;;;;;;;103.88;44.25;;;;;;;-1.74;100.00;95324.28;1034715;28;20026;-44
2021/01/06 02:14:13;;;;;;;92.40;42.72;;;;;;;-1.73;100.00;95320.72;1037328;28;20029;-43
2021/01/06 02:14:59;;;;;;;104.78;41.65;;;;;;;-1.81;100.00;95319.66;1044403;28;20021;-42
2021/01/06 02:15:45;;;;;;;107.75;43.17;;;;;;;-1.85;100.00;95314.94;1037263;28;20033;-44
2021/01/06 02:16:32;;;;;;;98.18;41.42;;;;;;;-1.76;100.00;95318.41;1041268;28;20053;-43
2021/01/06 02:17:05;;;;;;;88.78;39.20;;;;;;;-1.66;100.00;95319.22;1037520;28;20068;-43
2021/01/06 02:17:35;;;;;;;102.13;42.95;;;;;;;-1.72;100.00;95319.78;1045243;28;20445;-42
2021/01/06 02:18:06;;;;;;;106.07;43.37;;;;;;;-1.69;100.00;95315.16;1045473;28;20076;-42
2021/01/06 02:18:36;;;;;;;92.87;39.67;;;;;;;-1.68;100.00;95313.41;1041723;28;20017;-41
2021/01/06 02:19:07;;;;;;;109.13;43.23;;;;;;;-1.62;99.96;95313.63;1045799;28;20159;-41
2021/01/06 02:19:42;;;;;;;97.40;41.87;;;;;;;-1.56;99.47;95316.59;1045577;28;20024;-41
2021/01/06 02:20:22;;;;;;;95.25;41.10;;;;;;;-1.57;99.43;95315.81;1045650;28;20023;-43
2021/01/06 02:21:13;;;;;;;104.72;42.28;;;;;;;-1.62;99.95;95312.84;1045669;28;20021;-41
2021/01/06 02:21:43;;;;;;;104.45;41.38;;;;;;;-1.61;99.66;95314.44;1037395;28;20269;-42
2021/01/06 02:22:18;;;;;;;100.27;41.77;;;;;;;-1.51;99.59;95311.84;1033270;28;20026;-42
2021/01/06 02:22:49;;;;;;;105.75;43.33;;;;;;;-1.63;99.41;95316.38;1033274;28;20058;-42
2021/01/06 02:23:19;;;;;;;102.17;42.13;;;;;;;-1.73;99.85;95313.81;1027914;28;20034;-43
2021/01/06 02:23:50;;;;;;;105.67;43.67;;;;;;;-1.82;100.00;95312.06;1026066;28;20031;-42
2021/01/06 02:24:21;;;;;;;104.65;44.67;;;;;;;-1.83;100.00;95310.44;1026348;28;20034;-42
2021/01/06 02:24:51;;;;;;;101.40;43.63;;;;;;;-1.83;100.00;95313.81;1033283;28;20133;-44
2021/01/06 02:25:24;;;;;;;124.67;44.87;;;;;;;-1.88;100.00;95308.28;1033748;28;20530;-43
2021/01/06 02:25:54;;;;;;;114.60;45.92;;;;;;;-1.92;100.00;95304.31;1037672;28;20485;-43
2021/01/06 02:26:25;;;;;;;115.40;45.43;;;;;;;-1.93;100.00;95301.88;1037920;28;20033;-44
2021/01/06 02:26:58;;;;;;;108.30;44.30;;;;;;;-1.81;100.00;95305.94;1041715;28;20021;-42
2021/01/06 02:27:31;;;;;;;98.05;42.38;;;;;;;-1.74;100.00;95303.63;1042261;28;20091;-43
2021/01/06 02:28:02;;;;;;;93.20;40.70;;;;;;;-1.71;100.00;95299.00;1041369;28;20029;-43
2021/01/06 02:28:32;;;;;;;98.57;42.63;;;;;;;-1.64;100.00;95296.66;1034082;28;20058;-43
2021/01/06 02:29:03;;;;;;;101.80;41.63;;;;;;;-1.66;100.00;95306.31;1033389;28;20022;-42
2021/01/06 02:29:34;;;;;;;111.53;42.93;;;;;;;-1.76;100.00;95298.59;1033236;28;20018;-43
2021/01/06 02:30:08;;;;;;;105.80;43.53;;;;;;;-1.74;100.00;95301.84;1033805;28;20029;-42
2021/01/06 02:30:40;;;;;;;101.20;43.70;;;;;;;-1.75;100.00;95309.75;1041510;28;20071;-42
2021/01/06 02:31:10;;;;;;;109.82;42.72;;;;;;;-1.72;100.00;95306.88;1042555;28;20060;-44